Time;durP1;ratioP1;P1;durP2;ratioP2;P2;SDS_P1;SDS_P2;PMS_P1;PMS_P2;Temp;Humidity;BMP_temperature;BMP_pressure;BME280_temperature;BME280_humidity;BME280_pressure;Samples;Min_cycle;Max_cycle;Signal;HPM_P1;HPM_P2
2023/09/01 00:01:14;;;;;;;7.40;4.35;;;;;;;17.89;84.50;99734.03;4934316;28;20567;-84
2023/09/01 00:03:59;;;;;;;8.07;4.43;;;;;;;17.88;84.50;99732.34;4927386;28;20455;-84
2023/09/01 00:06:26;;;;;;;7.32;4.30;;;;;;;17.88;85.02;99735.03;4935494;28;20050;-83
2023/09/01 00:08:53;;;;;;;9.18;4.93;;;;;;;17.88;84.82;99737.72;4915192;28;20067;-83
2023/09/01 00:11:20;;;;;;;9.10;4.65;;;;;;;17.88;84.58;99733.19;4924455;28;20130;-83
2023/09/01 00:13:47;;;;;;;6.05;3.92;;;;;;;17.87;84.65;99731.53;4934428;28;20146;-83
2023/09/01 00:16:14;;;;;;;6.85;4.65;;;;;;;17.85;84.34;99733.56;4911658;28;20127;-84
2023/09/01 00:18:41;;;;;;;6.45;4.15;;;;;;;17.85;84.37;99736.25;4937419;28;20059;-83
2023/09/01 00:21:08;;;;;;;6.72;4.15;;;;;;;17.83;84.13;99732.91;4912588;28;20770;-83
2023/09/01 00:23:35;;;;;;;8.70;4.32;;;;;;;17.83;83.93;99738.28;4944630;28;20111;-84
2023/09/01 00:26:02;;;;;;;8.80;4.15;;;;;;;17.82;84.41;99733.09;4937832;28;20049;-84
2023/09/01 00:28:29;;;;;;;7.15;4.22;;;;;;;17.81;84.75;99729.59;4913985;28;20043;-84
2023/09/01 00:30:57;;;;;;;12.68;4.30;;;;;;;17.81;84.96;99732.28;4950984;28;20047;-83
2023/09/01 00:33:27;;;;;;;6.90;4.40;;;;;;;17.82;85.15;99727.75;4896110;28;20055;-84
2023/09/01 00:35:55;;;;;;;8.48;4.75;;;;;;;17.82;85.19;99725.06;4923365;28;20633;-84
2023/09/01 00:38:24;;;;;;;8.07;3.70;;;;;;;17.81;85.38;99729.59;4897438;28;20055;-84
2023/09/01 00:40:52;;;;;;;5.72;3.92;;;;;;;17.81;85.41;99726.91;4911411;28;20114;-83
2023/09/01 00:43:19;;;;;;;6.10;4.03;;;;;;;17.79;85.24;99729.78;4927216;28;20039;-84
2023/09/01 00:45:45;;;;;;;6.60;3.97;;;;;;;17.80;85.35;99714.47;4925170;28;20074;-83
2023/09/01 00:48:13;;;;;;;5.72;3.13;;;;;;;17.80;85.53;99711.78;4926897;29;20426;-84
2023/09/01 00:50:42;;;;;;;5.30;3.30;;;;;;;17.79;85.46;99708.28;4926052;28;20060;-84
2023/09/01 00:53:08;;;;;;;8.02;3.80;;;;;;;17.78;85.98;99703.91;4922770;28;20044;-84
2023/09/01 00:55:36;;;;;;;10.23;4.10;;;;;;;17.77;85.83;99704.09;4928882;28;20043;-83
2023/09/01 00:58:03;;;;;;;6.63;3.60;;;;;;;17.77;86.09;99710.28;4929776;28;20063;-84
2023/09/01 01:00:32;;;;;;;6.00;3.22;;;;;;;17.77;86.41;99709.44;4921610;28;20526;-84
2023/09/01 01:03:04;;;;;;;7.25;3.20;;;;;;;17.73;86.40;99705.47;4920712;28;21146;-84
2023/09/01 01:05:43;;;;;;;3.50;2.58;;;;;;;17.70;86.61;99703.97;4934914;28;20483;-84
2023/09/01 01:08:22;;;;;;;8.95;3.10;;;;;;;17.68;86.96;99700.66;4895698;29;20051;-84
2023/09/01 01:10:54;;;;;;;3.95;2.80;;;;;;;17.72;86.62;99699.25;4920738;28;20048;-84
2023/09/01 01:13:22;;;;;;;3.42;2.72;;;;;;;17.73;86.29;99692.88;4926238;29;20095;-84
2023/09/01 01:15:54;;;;;;;4.60;2.78;;;;;;;17.72;86.68;99693.06;4939031;28;20054;-84
2023/09/01 01:18:23;;;;;;;3.03;2.40;;;;;;;17.72;86.74;99693.88;4952921;28;20050;-83
2023/09/01 01:20:53;;;;;;;4.43;2.65;;;;;;;17.72;86.76;99687.69;4943084;28;20110;-83
2023/09/01 01:23:21;;;;;;;3.58;2.45;;;;;;;17.72;86.83;99679.63;4933697;28;20161;-84
2023/09/01 01:25:49;;;;;;;2.58;2.03;;;;;;;17.72;86.79;99682.31;4956057;28;20054;-84
2023/09/01 01:28:17;;;;;;;3.30;1.92;;;;;;;17.73;86.72;99681.28;4935394;28;20047;-84
2023/09/01 01:30:46;;;;;;;6.80;2.10;;;;;;;17.74;86.54;99688.34;4909666;28;20119;-84
2023/09/01 01:33:34;;;;;;;3.53;1.95;;;;;;;17.71;87.10;99694.09;4934213;28;20050;-83
2023/09/01 01:36:26;;;;;;;3.97;2.03;;;;;;;17.65;87.55;99684.91;4935726;28;20082;-83
2023/09/01 01:39:07;;;;;;;6.15;1.92;;;;;;;17.66;87.49;99685.75;4934582;28;20494;-83
2023/09/01 01:41:41;;;;;;;9.23;2.13;;;;;;;17.67;87.11;99688.25;4924998;29;20130;-84
2023/09/01 01:44:09;;;;;;;2.30;2.10;;;;;;;17.69;86.95;99677.31;4920539;28;20130;-83
2023/09/01 01:46:37;;;;;;;3.58;1.80;;;;;;;17.70;86.84;99679.81;4912444;28;20081;-83
2023/09/01 01:49:08;;;;;;;8.52;2.70;;;;;;;17.68;86.94;99671.13;4914071;28;20359;-84
2023/09/01 01:51:35;;;;;;;5.90;1.77;;;;;;;17.68;87.25;99668.44;4926825;28;20134;-83
2023/09/01 01:54:03;;;;;;;2.47;1.70;;;;;;;17.70;87.24;99676.28;4926786;28;20047;-84
2023/09/01 01:56:30;;;;;;;7.03;2.00;;;;;;;17.66;87.15;99670.47;4930507;28;20223;-83
2023/09/01 01:58:57;;;;;;;2.47;2.00;;;;;;;17.68;87.38;99673.81;4921453;28;20736;-84
2023/09/01 02:01:25;;;;;;;3.13;2.10;;;;;;;17.68;87.60;99672.97;4924471;28;20048;-84
2023/09/01 02:03:52;;;;;;;2.45;2.00;;;;;;;17.67;87.43;99680.19;4909723;28;20112;-84
2023/09/01 02:06:19;;;;;;;2.90;1.60;;;;;;;17.68;87.36;99671.13;4906186;28;20118;-84
2023/09/01 02:08:46;;;;;;;1.73;1.63;;;;;;;17.66;87.33;99667.78;4923720;28;20098;-83
2023/09/01 02:11:12;;;;;;;2.78;1.80;;;;;;;17.67;87.60;99677.50;4909054;28;20051;-83
2023/09/01 02:13:41;;;;;;;5.07;2.00;;;;;;;17.67;87.52;99674.00;4945564;28;20059;-83
2023/09/01 02:16:07;;;;;;;2.03;1.90;;;;;;;17.66;87.79;99673.16;4898865;28;20496;-84
2023/09/01 02:18:35;;;;;;;2.17;1.70;;;;;;;17.67;87.81;99671.31;4948040;28;20356;-83
2023/09/01 02:21:01;;;;;;;3.03;1.88;;;;;;;17.65;87.70;99667.97;4898038;28;20518;-83
2023/09/01 02:23:28;;;;;;;1.90;1.52;;;;;;;17.65;87.27;99670.66;4913292;28;20410;-84
2023/09/01 02:25:56;;;;;;;2.78;1.90;;;;;;;17.64;87.42;99679.75;4932545;28;20043;-84
2023/09/01 02:28:23;;;;;;;3.67;2.28;;;;;;;17.64;87.67;99674.38;4946066;28;20051;-84
2023/09/01 02:30:49;;;;;;;2.70;2.50;;;;;;;17.64;87.54;99677.88;4918558;28;20039;-83
2023/09/01 02:33:18;;;;;;;4.80;2.55;;;;;;;17.65;87.78;99670.66;4924446;28;20127;-83
2023/09/01 02:35:46;;;;;;;2.38;2.08;;;;;;;17.63;87.87;99665.47;4930277;28;20147;-83
2023/09/01 02:38:14;;;;;;;4.05;2.30;;;;;;;17.64;88.11;99666.31;4915648;28;20043;-83
2023/09/01 02:40:41;;;;;;;4.95;2.28;;;;;;;17.64;88.30;99666.31;4939747;28;20047;-84
2023/09/01 02:43:08;;;;;;;3.80;2.47;;;;;;;17.62;88.10;99668.34;4929770;29;20040;-83
2023/09/01 02:45:34;;;;;;;4.43;2.38;;;;;;;17.63;88.09;99664.63;4934557;28;20047;-84
2023/09/01 02:48:01;;;;;;;2.58;2.38;;;;;;;17.61;87.93;99664.00;4917459;28;20043;-84
2023/09/01 02:50:28;;;;;;;2.92;2.53;;;;;;;17.62;87.90;99669.16;4902053;28;20107;-83
2023/09/01 02:52:55;;;;;;;4.68;3.13;;;;;;;17.61;88.03;99661.31;4941726;28;20054;-84
2023/09/01 02:55:21;;;;;;;4.72;2.67;;;;;;;17.62;87.96;99671.84;4944400;28;20063;-83
2023/09/01 02:57:48;;;;;;;4.88;3.40;;;;;;;17.60;88.18;99667.69;4912745;28;20043;-84
2023/09/01 03:00:18;;;;;;;4.70;3.17;;;;;;;17.57;87.67;99672.41;4909842;28;20047;-83
2023/09/01 03:02:45;;;;;;;6.45;3.17;;;;;;;17.59;88.30;99664.19;4929983;28;20047;-84
2023/09/01 03:05:13;;;;;;;6.18;3.03;;;;;;;17.57;88.12;99667.03;4932941;28;20118;-84
2023/09/01 03:07:41;;;;;;;6.63;3.30;;;;;;;17.60;88.01;99667.69;4929554;28;20051;-84
2023/09/01 03:10:08;;;;;;;7.45;3.65;;;;;;;17.58;88.61;99668.72;4931158;28;20138;-84
2023/09/01 03:12:37;;;;;;;5.95;3.72;;;;;;;17.59;88.67;99669.53;4908240;28;20047;-83
2023/09/01 03:15:06;;;;;;;4.40;3.35;;;;;;;17.58;88.36;99666.03;4899791;28;20048;-84
2023/09/01 03:17:33;;;;;;;5.43;3.33;;;;;;;17.58;88.61;99662.53;4907741;29;20040;-83
2023/09/01 03:20:00;;;;;;;6.43;3.20;;;;;;;17.57;88.43;99667.03;4929830;28;21161;-84
2023/09/01 03:22:27;;;;;;;4.75;3.05;;;;;;;17.56;88.53;99662.69;4946201;28;20043;-84
2023/09/01 03:24:54;;;;;;;4.65;2.80;;;;;;;17.55;88.58;99668.25;4936229;28;20515;-84
2023/09/01 03:27:21;;;;;;;3.95;3.15;;;;;;;17.54;88.19;99664.72;4942740;28;20427;-83
2023/09/01 03:29:54;;;;;;;7.00;2.95;;;;;;;17.51;88.70;99664.28;4954179;28;20048;-83
2023/09/01 03:32:23;;;;;;;6.57;3.90;;;;;;;17.52;88.53;99658.69;4909283;28;20525;-83
2023/09/01 03:34:50;;;;;;;5.15;3.45;;;;;;;17.54;88.59;99661.22;4935447;28;20048;-83
2023/09/01 03:37:17;;;;;;;5.22;3.50;;;;;;;17.52;88.81;99658.69;4922127;28;20046;-84
2023/09/01 03:39:44;;;;;;;6.25;3.67;;;;;;;17.54;89.02;99658.53;4934057;28;20055;-84
2023/09/01 03:42:11;;;;;;;5.50;3.72;;;;;;;17.53;89.30;99659.56;4938089;28;20144;-84
2023/09/01 03:44:37;;;;;;;8.82;3.47;;;;;;;17.52;89.17;99656.03;4904981;29;20139;-84
2023/09/01 03:47:04;;;;;;;6.40;4.10;;;;;;;17.52;89.38;99656.03;4918800;28;20047;-84
2023/09/01 03:49:36;;;;;;;8.32;3.83;;;;;;;17.51;89.49;99661.59;4929441;28;20047;-84
2023/09/01 03:52:03;;;;;;;6.22;4.10;;;;;;;17.51;89.50;99665.09;4912460;28;20127;-84
2023/09/01 03:54:29;;;;;;;5.15;4.32;;;;;;;17.52;89.73;99660.56;4925816;28;20066;-84
2023/09/01 03:56:57;;;;;;;6.88;4.05;;;;;;;17.52;89.92;99664.06;4905092;28;20131;-83
2023/09/01 03:59:24;;;;;;;8.02;3.97;;;;;;;17.51;89.67;99654.38;4933743;28;20996;-84
2023/09/01 04:01:50;;;;;;;8.40;3.80;;;;;;;17.52;89.95;99655.19;4923158;28;20103;-84
2023/09/01 04:04:18;;;;;;;8.77;4.28;;;;;;;17.52;89.67;99668.63;4936354;28;20384;-84
2023/09/01 04:06:45;;;;;;;5.68;4.38;;;;;;;17.52;90.23;99660.56;4929119;28;20054;-83
2023/09/01 04:09:11;;;;;;;8.30;4.03;;;;;;;17.51;90.08;99661.59;4936233;28;20051;-83
2023/09/01 04:11:38;;;;;;;5.93;3.92;;;;;;;17.52;90.08;99661.38;4926847;28;20039;-84
2023/09/01 04:14:07;;;;;;;6.20;3.85;;;;;;;17.53;90.58;99659.56;4918414;28;20047;-84
2023/09/01 04:16:35;;;;;;;7.40;4.32;;;;;;;17.52;90.53;99661.38;4912900;28;20134;-84
2023/09/01 04:19:02;;;;;;;7.93;4.97;;;;;;;17.53;90.69;99668.44;4934463;28;20059;-84
2023/09/01 04:21:30;;;;;;;7.70;4.40;;;;;;;17.54;91.00;99663.91;4903609;28;20459;-81
2023/09/01 04:23:58;;;;;;;5.47;4.40;;;;;;;17.54;90.98;99664.72;4935364;28;20039;-82
2023/09/01 04:26:25;;;;;;;5.80;4.03;;;;;;;17.54;91.10;99666.59;4930609;28;20043;-81
2023/09/01 04:28:52;;;;;;;6.68;4.82;;;;;;;17.52;90.97;99661.38;4909040;28;20730;-81
2023/09/01 04:31:29;;;;;;;6.25;3.90;;;;;;;17.49;91.77;99661.75;4926435;28;20090;-82
2023/09/01 04:33:59;;;;;;;5.07;3.90;;;;;;;17.54;91.31;99670.09;4943526;28;20422;-82
2023/09/01 04:36:27;;;;;;;6.38;4.35;;;;;;;17.54;90.99;99671.97;4911257;28;20047;-81
2023/09/01 04:39:12;;;;;;;8.55;4.40;;;;;;;17.54;91.37;99670.09;4937727;28;20061;-81
2023/09/01 04:41:40;;;;;;;6.97;4.93;;;;;;;17.53;91.49;99662.25;4899069;28;20044;-81
2023/09/01 04:44:07;;;;;;;8.98;4.78;;;;;;;17.52;91.66;99672.13;4927241;28;20058;-81
2023/09/01 04:46:33;;;;;;;11.10;5.22;;;;;;;17.54;91.67;99672.78;4922144;28;20051;-81
2023/09/01 04:49:01;;;;;;;8.32;5.72;;;;;;;17.55;91.78;99678.97;4952209;28;20127;-81
2023/09/01 04:51:28;;;;;;;6.03;5.30;;;;;;;17.53;91.76;99673.81;4925794;28;20106;-81
2023/09/01 04:53:54;;;;;;;10.27;6.90;;;;;;;17.55;92.01;99670.91;4919031;28;20406;-81
2023/09/01 04:56:21;;;;;;;8.63;5.93;;;;;;;17.54;91.87;99672.78;4909919;28;20088;-81
2023/09/01 04:58:48;;;;;;;10.77;5.95;;;;;;;17.54;91.80;99680.00;4910910;28;20122;-81
2023/09/01 05:01:16;;;;;;;9.55;5.50;;;;;;;17.54;92.06;99680.84;4897300;28;20499;-81
2023/09/01 05:03:42;;;;;;;8.90;4.95;;;;;;;17.52;92.19;99685.56;4891608;28;20048;-81
2023/09/01 05:06:10;;;;;;;7.70;4.78;;;;;;;17.53;92.21;99681.88;4924897;28;20099;-81
2023/09/01 05:08:37;;;;;;;5.97;4.47;;;;;;;17.52;92.25;99679.34;4912010;28;20054;-81
2023/09/01 05:11:04;;;;;;;8.18;4.72;;;;;;;17.52;92.45;99673.97;4907614;28;20063;-81
2023/09/01 05:13:31;;;;;;;9.13;4.97;;;;;;;17.53;92.12;99681.88;4933997;28;20139;-82
2023/09/01 05:15:58;;;;;;;8.52;5.25;;;;;;;17.52;92.60;99677.50;4947538;28;20058;-82
2023/09/01 05:18:26;;;;;;;7.35;4.65;;;;;;;17.52;92.73;99680.19;4920625;28;20134;-81
2023/09/01 05:20:53;;;;;;;7.40;5.03;;;;;;;17.51;92.95;99681.22;4907821;28;20054;-81
2023/09/01 05:23:20;;;;;;;10.10;6.00;;;;;;;17.52;92.78;99682.03;4932887;28;20052;-81
2023/09/01 05:25:52;;;;;;;8.85;5.25;;;;;;;17.49;92.98;99677.88;4935169;28;20499;-82
2023/09/01 05:28:19;;;;;;;10.82;6.47;;;;;;;17.50;92.88;99684.94;4903955;28;20888;-81
2023/09/01 05:30:47;;;;;;;11.55;6.18;;;;;;;17.50;92.89;99694.81;4951778;28;20448;-82
2023/09/01 05:33:14;;;;;;;10.45;5.85;;;;;;;17.50;93.05;99682.25;4920950;28;20460;-82
2023/09/01 05:35:42;;;;;;;10.55;6.20;;;;;;;17.52;93.21;99688.22;4908918;28;20435;-81
2023/09/01 05:38:09;;;;;;;7.43;5.45;;;;;;;17.52;93.71;99690.91;4947143;28;20754;-82
2023/09/01 05:40:37;;;;;;;10.00;5.90;;;;;;;17.53;93.58;99699.84;4924311;29;20032;-81
2023/09/01 05:43:04;;;;;;;9.95;5.68;;;;;;;17.52;93.71;99701.66;4908659;28;20130;-81
2023/09/01 05:45:32;;;;;;;9.10;6.00;;;;;;;17.51;93.95;99700.00;4902614;28;20050;-81
2023/09/01 05:47:58;;;;;;;9.23;6.00;;;;;;;17.52;94.32;99696.28;4931843;28;20381;-81
2023/09/01 05:50:26;;;;;;;12.05;6.25;;;;;;;17.50;94.24;99703.72;4923383;28;20527;-81
2023/09/01 05:52:53;;;;;;;10.02;6.35;;;;;;;17.51;94.24;99705.38;4934424;28;20547;-81
2023/09/01 05:55:19;;;;;;;10.38;6.25;;;;;;;17.51;94.19;99707.22;4923980;28;20443;-81
2023/09/01 05:57:46;;;;;;;7.68;5.80;;;;;;;17.49;94.12;99703.88;4926370;28;20058;-81
2023/09/01 06:00:13;;;;;;;13.23;6.13;;;;;;;17.51;94.43;99709.91;4923360;28;20514;-81
2023/09/01 06:02:41;;;;;;;8.20;5.43;;;;;;;17.51;94.24;99710.75;4895048;28;20047;-81
2023/09/01 06:05:08;;;;;;;9.75;5.03;;;;;;;17.52;94.39;99711.56;4953876;28;20055;-81
2023/09/01 06:07:36;;;;;;;6.35;4.88;;;;;;;17.54;94.10;99710.38;4926571;28;20420;-81
2023/09/01 06:10:03;;;;;;;8.88;5.13;;;;;;;17.55;94.58;99713.88;4932491;28;20055;-81
2023/09/01 06:12:30;;;;;;;10.02;4.90;;;;;;;17.54;94.77;99712.22;4908740;29;20902;-83
2023/09/01 06:14:57;;;;;;;8.05;4.30;;;;;;;17.55;94.77;99714.75;4950012;28;20043;-83
2023/09/01 06:17:23;;;;;;;10.48;4.82;;;;;;;17.56;94.78;99724.44;4937109;28;20052;-83
2023/09/01 06:20:06;;;;;;;6.65;4.70;;;;;;;17.56;95.15;99721.75;4935193;28;20459;-84
2023/09/01 06:22:33;;;;;;;7.85;5.68;;;;;;;17.58;95.09;99722.41;4939068;28;20044;-83
2023/09/01 06:25:02;;;;;;;9.95;6.30;;;;;;;17.60;95.22;99722.22;4920927;28;20046;-83
2023/09/01 06:27:29;;;;;;;11.80;6.28;;;;;;;17.61;95.42;99717.72;4908954;28;20136;-83
2023/09/01 06:29:56;;;;;;;7.65;5.53;;;;;;;17.63;95.66;99727.25;4924334;28;20452;-83
2023/09/01 06:32:23;;;;;;;9.10;6.45;;;;;;;17.63;95.89;99724.56;4922744;28;20054;-83
2023/09/01 06:34:50;;;;;;;7.40;5.88;;;;;;;17.64;96.08;99723.53;4910410;28;20138;-82
2023/09/01 06:37:18;;;;;;;10.20;6.97;;;;;;;17.65;96.44;99729.72;4908296;28;20495;-83
2023/09/01 06:39:45;;;;;;;8.43;5.88;;;;;;;17.65;96.63;99741.28;4925616;28;20131;-83
2023/09/01 06:42:11;;;;;;;10.45;6.40;;;;;;;17.67;96.70;99741.13;4918558;28;20126;-87
2023/09/01 06:44:38;;;;;;;9.25;5.45;;;;;;;17.67;96.77;99743.81;4925390;28;20050;-85
2023/09/01 06:47:05;;;;;;;8.98;5.88;;;;;;;17.68;97.25;99742.78;4902049;28;20049;-86
2023/09/01 06:49:32;;;;;;;9.20;5.35;;;;;;;17.68;97.02;99743.63;4924425;28;20043;-85
2023/09/01 06:51:59;;;;;;;10.02;5.55;;;;;;;17.69;97.27;99742.59;4915818;28;20111;-86
2023/09/01 06:54:26;;;;;;;6.55;4.10;;;;;;;17.71;97.44;99745.94;4939330;28;20134;-83
2023/09/01 06:56:52;;;;;;;7.00;4.30;;;;;;;17.72;97.46;99744.91;4948617;28;20043;-82
2023/09/01 06:59:19;;;;;;;7.57;5.00;;;;;;;17.73;97.57;99743.06;4938758;28;20079;-82
2023/09/01 07:01:47;;;;;;;7.28;4.30;;;;;;;17.74;97.68;99740.19;4922602;28;20130;-82
2023/09/01 07:04:14;;;;;;;5.57;3.33;;;;;;;17.76;97.85;99743.53;4925601;28;20066;-82
2023/09/01 07:06:41;;;;;;;7.90;3.05;;;;;;;17.78;98.07;99743.34;4953837;28;20114;-83
2023/09/01 07:09:08;;;;;;;3.50;2.60;;;;;;;17.81;98.36;99750.22;4922420;28;20040;-82
2023/09/01 07:11:35;;;;;;;5.10;2.67;;;;;;;17.82;98.56;99747.38;4947520;28;20055;-83
2023/09/01 07:14:01;;;;;;;3.70;2.22;;;;;;;17.84;98.39;99747.19;4940158;28;20475;-83
2023/09/01 07:16:28;;;;;;;3.55;1.88;;;;;;;17.84;98.51;99745.34;4949320;28;20051;-83
2023/09/01 07:18:55;;;;;;;2.75;2.17;;;;;;;17.87;98.54;99750.34;4954136;28;20122;-83
2023/09/01 07:21:21;;;;;;;3.72;2.60;;;;;;;17.88;98.69;99743.94;4943472;28;20051;-83
2023/09/01 07:23:49;;;;;;;7.72;2.30;;;;;;;17.89;99.28;99745.63;4950917;28;20043;-82
2023/09/01 07:26:16;;;;;;;5.00;2.05;;;;;;;17.89;99.55;99748.31;4924624;28;20121;-83
2023/09/01 07:28:43;;;;;;;3.28;1.60;;;;;;;17.91;99.77;99737.34;4927622;28;20048;-83
2023/09/01 07:31:12;;;;;;;4.40;2.13;;;;;;;17.92;99.54;99747.09;4930717;28;20054;-83
2023/09/01 07:33:42;;;;;;;4.35;1.67;;;;;;;17.92;100.00;99750.59;4911087;28;20055;-83
2023/09/01 07:36:13;;;;;;;2.60;2.05;;;;;;;17.93;100.00;99752.25;4933964;28;20050;-83
2023/09/01 07:38:39;;;;;;;3.10;2.08;;;;;;;17.93;100.00;99754.13;4921204;28;20048;-84
2023/09/01 07:41:08;;;;;;;4.97;2.22;;;;;;;17.93;99.99;99754.13;4894323;28;20133;-82
2023/09/01 07:43:35;;;;;;;4.50;2.17;;;;;;;17.93;100.00;99756.81;4921252;28;20055;-82
2023/09/01 07:46:03;;;;;;;3.30;1.92;;;;;;;17.94;100.00;99762.00;4936908;28;20062;-82
2023/09/01 07:48:30;;;;;;;2.88;2.05;;;;;;;17.99;100.00;99761.47;4911760;28;20133;-82
2023/09/01 07:50:57;;;;;;;4.55;1.83;;;;;;;18.03;100.00;99760.06;4923144;28;20051;-81
2023/09/01 07:53:24;;;;;;;3.10;1.92;;;;;;;18.06;100.00;99767.72;4928416;28;20047;-82
2023/09/01 07:55:51;;;;;;;4.93;1.90;;;;;;;18.07;100.00;99768.59;4937393;28;20075;-84
2023/09/01 07:58:20;;;;;;;2.45;2.13;;;;;;;18.07;100.00;99769.41;4924464;28;20043;-84
2023/09/01 08:00:47;;;;;;;4.65;2.10;;;;;;;18.08;100.00;99763.00;4940983;28;20043;-84
2023/09/01 08:03:15;;;;;;;4.35;1.90;;;;;;;18.11;100.00;99780.63;4924139;28;20051;-83
2023/09/01 08:05:42;;;;;;;4.68;2.08;;;;;;;18.12;100.00;99775.06;4907606;28;20067;-83
2023/09/01 08:08:13;;;;;;;2.83;1.60;;;;;;;18.14;100.00;99783.78;4923991;29;20555;-84
2023/09/01 08:10:41;;;;;;;3.20;1.90;;;;;;;18.17;100.00;99783.41;4925727;28;20066;-84
2023/09/01 08:13:08;;;;;;;3.85;2.00;;;;;;;18.21;100.00;99791.91;4926592;28;20522;-83
2023/09/01 08:15:35;;;;;;;3.80;1.83;;;;;;;18.26;100.00;99780.59;4929259;28;20066;-83
2023/09/01 08:18:02;;;;;;;2.65;1.40;;;;;;;18.32;100.00;99785.22;4925217;28;20134;-83
2023/09/01 08:20:29;;;;;;;2.00;1.77;;;;;;;18.38;100.00;99782.63;4935306;28;20074;-82
2023/09/01 08:22:56;;;;;;;3.10;1.50;;;;;;;18.44;100.00;99789.09;4936182;28;20051;-83
2023/09/01 08:25:23;;;;;;;3.47;1.60;;;;;;;18.52;100.00;99783.66;4909728;28;20043;-83
2023/09/01 08:27:49;;;;;;;3.58;1.95;;;;;;;18.52;100.00;99780.09;4941846;28;20467;-83
2023/09/01 08:30:16;;;;;;;4.07;1.92;;;;;;;18.56;100.00;99784.09;4922379;28;20055;-83
2023/09/01 08:32:43;;;;;;;2.33;2.10;;;;;;;18.56;100.00;99790.28;4910165;28;20078;-83
2023/09/01 08:35:11;;;;;;;2.20;1.60;;;;;;;18.56;100.00;99787.59;4942290;28;20050;-83
2023/09/01 08:37:39;;;;;;;3.50;1.50;;;;;;;18.55;100.00;99791.34;4924832;28;20534;-83
2023/09/01 08:40:07;;;;;;;2.47;1.67;;;;;;;18.53;100.00;99789.84;4909017;28;20043;-83
2023/09/01 08:42:34;;;;;;;4.32;1.73;;;;;;;18.51;100.00;99792.72;4915044;28;20050;-81
2023/09/01 08:45:01;;;;;;;2.53;1.77;;;;;;;18.50;100.00;99790.25;4924915;28;20047;-80
2023/09/01 08:47:34;;;;;;;2.63;1.80;;;;;;;18.47;100.00;99793.28;4937525;28;20040;-81
2023/09/01 08:50:01;;;;;;;4.85;1.58;;;;;;;18.48;100.00;99800.34;4950644;28;20075;-81
2023/09/01 08:52:29;;;;;;;3.42;1.60;;;;;;;18.48;100.00;99803.03;4911119;28;20118;-80
2023/09/01 08:54:56;;;;;;;2.55;1.45;;;;;;;18.49;100.00;99802.81;4949788;28;20155;-80
2023/09/01 08:57:23;;;;;;;3.03;1.77;;;;;;;18.49;100.00;99808.19;4921474;28;20051;-80
2023/09/01 08:59:49;;;;;;;2.20;1.60;;;;;;;18.51;100.00;99802.66;4936011;28;20440;-81
2023/09/01 09:02:16;;;;;;;2.60;1.70;;;;;;;18.51;100.00;99803.47;4935517;28;20051;-81
2023/09/01 09:04:43;;;;;;;3.38;1.65;;;;;;;18.53;100.00;99804.13;4950367;28;20131;-80
2023/09/01 09:07:15;;;;;;;2.17;1.42;;;;;;;18.54;100.00;99799.56;4949649;28;20138;-81
2023/09/01 09:09:58;;;;;;;3.80;1.90;;;;;;;18.51;100.00;99805.34;4921488;29;20126;-81
2023/09/01 09:12:34;;;;;;;;;;;;;;;18.41;100.00;99802.94;4911012;28;20142;-86
2023/09/01 09:15:01;;;;;;;3.25;1.88;;;;;;;18.52;100.00;99798.94;4920306;28;19931;-82
2023/09/01 09:17:43;;;;;;;2.28;1.80;;;;;;;18.51;100.00;99802.66;4928951;28;20043;-87
2023/09/01 09:20:12;;;;;;;3.10;1.40;;;;;;;18.57;100.00;99801.88;4953003;28;20056;-87
2023/09/01 09:22:56;;;;;;;4.70;2.25;;;;;;;18.54;100.00;99804.94;4911146;28;20098;-87
2023/09/01 09:25:30;;;;;;;4.45;1.90;;;;;;;18.56;100.00;99803.75;4896576;28;20058;-83
2023/09/01 09:28:03;;;;;;;1.67;1.58;;;;;;;18.56;100.00;99803.75;4926389;28;20114;-86
2023/09/01 09:30:29;;;;;;;2.80;1.52;;;;;;;18.54;100.00;99800.41;4892228;29;20130;-81
2023/09/01 09:33:06;;;;;;;3.30;2.10;;;;;;;18.54;100.00;99808.47;4919163;28;20055;-81
2023/09/01 09:35:34;;;;;;;3.53;2.13;;;;;;;18.59;100.00;99806.06;4924348;28;20118;-80
2023/09/01 09:38:02;;;;;;;2.00;1.70;;;;;;;18.62;100.00;99811.06;4923397;28;20047;-81
2023/09/01 09:40:29;;;;;;;1.75;1.42;;;;;;;18.66;100.00;99806.13;4926981;28;20048;-81
2023/09/01 09:42:59;;;;;;;3.03;1.80;;;;;;;18.69;100.00;99810.31;4923667;28;20058;-82
2023/09/01 09:45:32;;;;;;;2.38;1.52;;;;;;;18.65;100.00;99810.69;4894447;28;20640;-80
2023/09/01 09:47:59;;;;;;;2.60;1.52;;;;;;;18.67;100.00;99802.41;4920501;28;20504;-81
2023/09/01 09:50:27;;;;;;;2.83;1.73;;;;;;;18.72;100.00;99807.22;4918335;28;20106;-82
2023/09/01 09:53:02;;;;;;;2.78;1.38;;;;;;;18.75;100.00;99799.66;4922593;28;20499;-81
2023/09/01 09:55:33;;;;;;;2.25;1.60;;;;;;;18.79;100.00;99805.50;4923193;28;20788;-84
2023/09/01 09:58:05;;;;;;;2.30;1.60;;;;;;;18.85;100.00;99810.09;4942013;28;20103;-83
2023/09/01 10:00:40;;;;;;;2.53;1.23;;;;;;;18.91;100.00;99813.91;4935771;28;20637;-83
2023/09/01 10:03:08;;;;;;;8.25;1.67;;;;;;;18.96;100.00;99809.63;4944976;28;20047;-83
2023/09/01 10:05:35;;;;;;;4.70;2.25;;;;;;;18.99;100.00;99814.63;4925540;29;20087;-84
2023/09/01 10:08:06;;;;;;;1.60;1.40;;;;;;;19.02;100.00;99811.53;4913685;28;20765;-84
2023/09/01 10:10:34;;;;;;;1.63;1.45;;;;;;;19.04;100.00;99804.09;4951625;28;20050;-84
2023/09/01 10:13:03;;;;;;;3.22;1.63;;;;;;;19.15;100.00;99802.75;4911277;28;20059;-83
2023/09/01 10:15:31;;;;;;;3.47;1.40;;;;;;;19.19;100.00;99806.75;4925903;28;20563;-84
2023/09/01 10:18:00;;;;;;;4.00;1.58;;;;;;;19.26;100.00;99801.44;4946392;28;20507;-83
2023/09/01 10:20:34;;;;;;;2.15;1.60;;;;;;;19.29;100.00;99801.88;4917663;28;20043;-83
2023/09/01 10:23:03;;;;;;;3.78;1.55;;;;;;;19.30;100.00;99803.53;4947332;28;20047;-83
2023/09/01 10:25:30;;;;;;;5.68;1.50;;;;;;;19.33;100.00;99798.78;4907980;28;20118;-83
2023/09/01 10:28:04;;;;;;;2.58;1.70;;;;;;;19.35;100.00;99800.25;4920420;28;20043;-83
2023/09/01 10:30:32;;;;;;;1.40;1.30;;;;;;;19.37;100.00;99795.50;4925762;28;20564;-83
2023/09/01 10:33:26;;;;;;;1.90;1.27;;;;;;;19.36;100.00;99795.69;4934426;28;20130;-83
2023/09/01 10:35:55;;;;;;;1.70;1.45;;;;;;;19.34;100.00;99798.59;4927515;28;20172;-83
2023/09/01 10:38:23;;;;;;;2.58;1.10;;;;;;;19.31;100.00;99790.91;4954079;28;20491;-83
2023/09/01 10:40:52;;;;;;;1.85;1.27;;;;;;;19.32;100.00;99805.22;4953945;28;20115;-83
2023/09/01 10:43:42;;;;;;;2.55;1.38;;;;;;;19.24;100.00;99796.22;4926643;28;20556;-83
2023/09/01 10:46:11;;;;;;;3.10;2.08;;;;;;;19.30;100.00;99792.75;4937836;28;20051;-82
2023/09/01 10:48:57;;;;;;;5.05;1.42;;;;;;;19.25;100.00;99784.41;4913175;28;20550;-83
2023/09/01 10:51:39;;;;;;;2.75;1.48;;;;;;;19.28;100.00;99785.91;4907835;28;20055;-82
2023/09/01 10:54:15;;;;;;;2.03;1.30;;;;;;;19.23;100.00;99791.88;4926568;28;20495;-82
2023/09/01 10:56:59;;;;;;;2.78;1.60;;;;;;;19.20;100.00;99794.09;4938160;28;20495;-82
2023/09/01 10:59:36;;;;;;;4.03;1.50;;;;;;;19.22;100.00;99797.44;4925884;28;20495;-81
2023/09/01 11:02:28;;;;;;;1.85;1.55;;;;;;;19.16;100.00;99790.97;4921813;28;20048;-81
2023/09/01 11:04:55;;;;;;;1.27;1.17;;;;;;;19.21;100.00;99793.94;4924584;28;20054;-81
2023/09/01 11:07:22;;;;;;;2.63;1.30;;;;;;;19.22;100.00;99800.97;4928452;28;20116;-81
2023/09/01 11:09:49;;;;;;;1.95;1.30;;;;;;;19.23;100.00;99799.97;4908487;28;20142;-80
2023/09/01 11:12:17;;;;;;;1.95;1.40;;;;;;;19.22;100.00;99794.75;4907242;28;20038;-81
2023/09/01 11:14:58;;;;;;;3.03;2.10;;;;;;;19.19;100.00;99795.16;4923697;28;20079;-81
2023/09/01 11:17:51;;;;;;;3.50;1.55;;;;;;;19.16;100.00;99790.13;4909312;28;20058;-80
2023/09/01 11:20:19;;;;;;;4.03;1.50;;;;;;;19.26;100.00;99796.88;4905341;28;20075;-80
2023/09/01 11:22:46;;;;;;;1.70;1.60;;;;;;;19.30;100.00;99789.22;4890862;28;20055;-80
2023/09/01 11:25:14;;;;;;;3.45;1.88;;;;;;;19.36;100.00;99787.63;4929856;28;20164;-81
2023/09/01 11:27:45;;;;;;;2.75;1.55;;;;;;;19.38;100.00;99781.00;4939228;28;20134;-81
2023/09/01 11:30:12;;;;;;;2.33;1.70;;;;;;;19.43;100.00;99783.13;4919561;28;20035;-80
2023/09/01 11:32:39;;;;;;;2.85;1.40;;;;;;;19.47;100.00;99781.72;4938942;28;20058;-80
2023/09/01 11:35:07;;;;;;;5.93;1.58;;;;;;;19.50;100.00;99784.84;4912588;28;20047;-81
2023/09/01 11:37:39;;;;;;;1.95;1.20;;;;;;;19.52;100.00;99779.28;4950729;28;20107;-81